Time;durP1;ratioP1;P1;durP2;ratioP2;P2;SDS_P1;SDS_P2;PMS_P1;PMS_P2;Temp;Humidity;BMP_temperature;BMP_pressure;BME280_temperature;BME280_humidity;BME280_pressure;Samples;Min_cycle;Max_cycle;Signal;HPM_P1;HPM_P2
2023/04/18 00:01:37;;;;;;;;;;;7.20;99.90;;;;;;5073680;28;19978;-66
2023/04/18 00:04:06;;;;;;;;;;;7.30;99.90;;;;;;5073092;28;20016;-66
2023/04/18 00:06:34;;;;;;;;;;;7.30;99.90;;;;;;5089094;28;19928;-66
2023/04/18 00:09:00;;;;;;;;;;;7.30;99.90;;;;;;5073227;28;19924;-65
2023/04/18 00:11:26;;;;;;;;;;;7.30;99.90;;;;;;5073093;28;20427;-66
2023/04/18 00:13:52;;;;;;;;;;;7.40;99.90;;;;;;5074461;28;20266;-66
2023/04/18 00:16:18;;;;;;;;;;;7.40;99.90;;;;;;5073384;28;19929;-66
2023/04/18 00:18:43;;;;;;;;;;;7.40;99.90;;;;;;5056523;28;20442;-66
2023/04/18 00:21:09;;;;;;;;;;;7.30;99.90;;;;;;5074205;28;19928;-66
2023/04/18 00:23:35;;;;;;;;;;;7.30;99.90;;;;;;5072965;28;19928;-66
2023/04/18 00:26:00;;;;;;;;;;;7.30;99.90;;;;;;5072808;28;19925;-66
2023/04/18 00:28:26;;;;;;;;;;;7.30;99.90;;;;;;5073418;28;20058;-66
2023/04/18 00:30:52;;;;;;;;;;;7.20;99.90;;;;;;5073821;28;19963;-66
2023/04/18 00:33:17;;;;;;;;;;;7.20;99.90;;;;;;5071837;28;20540;-66
2023/04/18 00:35:43;;;;;;;;;;;7.20;99.90;;;;;;5072634;28;19978;-66
2023/04/18 00:38:09;;;;;;;;;;;7.20;99.90;;;;;;5056128;28;19973;-67
2023/04/18 00:40:35;;;;;;;;;;;7.20;99.90;;;;;;5071862;28;19932;-66
2023/04/18 00:43:01;;;;;;;;;;;7.10;99.90;;;;;;5072194;28;19924;-68
2023/04/18 00:45:26;;;;;;;;;;;7.20;99.90;;;;;;5054113;28;20054;-66
2023/04/18 00:47:52;;;;;;;;;;;7.10;99.90;;;;;;5102153;28;19936;-66
2023/04/18 00:50:18;;;;;;;;;;;7.10;99.90;;;;;;5072118;28;20013;-72
2023/04/18 00:52:44;;;;;;;;;;;7.10;99.90;;;;;;5072999;28;19932;-66
2023/04/18 00:55:10;;;;;;;;;;;7.00;99.90;;;;;;5071255;28;20382;-65
2023/04/18 00:57:36;;;;;;;;;;;7.00;99.90;;;;;;5072038;28;20710;-65
2023/04/18 01:00:07;;;;;;;;;;;7.00;99.90;;;;;;5073333;28;20392;-65
2023/04/18 01:02:33;;;;;;;;;;;7.00;99.90;;;;;;5072016;28;19951;-65
2023/04/18 01:04:58;;;;;;;;;;;6.90;99.90;;;;;;5070902;28;20386;-69
2023/04/18 01:07:25;;;;;;;;;;;6.90;99.90;;;;;;5071335;28;19928;-66
2023/04/18 01:09:51;;;;;;;;;;;6.90;99.90;;;;;;5073269;28;20011;-67
2023/04/18 01:12:17;;;;;;;;;;;6.90;99.90;;;;;;5058643;28;19933;-66
2023/04/18 01:14:43;;;;;;;;;;;6.80;99.90;;;;;;5067389;28;19924;-66
2023/04/18 01:17:12;;;;;;;;;;;6.80;99.90;;;;;;5071730;28;19925;-67
2023/04/18 01:19:38;;;;;;;;;;;6.80;99.90;;;;;;5071628;28;19933;-66
2023/04/18 01:22:04;;;;;;;;;;;6.80;99.90;;;;;;5063763;28;19929;-67
2023/04/18 01:24:30;;;;;;;;;;;6.80;99.90;;;;;;5065624;28;19932;-66
2023/04/18 01:26:57;;;;;;;;;;;6.80;99.90;;;;;;5072463;28;19928;-65
2023/04/18 01:29:26;;;;;;;;;;;6.80;99.90;;;;;;5071120;28;19924;-69
2023/04/18 01:31:51;;;;;;;;;;;6.70;99.90;;;;;;5072057;28;20341;-66
2023/04/18 01:34:17;;;;;;;;;;;6.70;99.90;;;;;;5071937;28;19982;-66
2023/04/18 01:36:43;;;;;;;;;;;6.70;99.90;;;;;;5071348;28;20711;-67
2023/04/18 01:39:09;;;;;;;;;;;6.70;99.90;;;;;;5072367;28;20423;-66
2023/04/18 01:41:35;;;;;;;;;;;6.60;99.90;;;;;;5071700;28;19925;-66
2023/04/18 01:44:00;;;;;;;;;;;6.60;99.90;;;;;;5072087;28;19928;-65
2023/04/18 01:46:27;;;;;;;;;;;6.60;99.90;;;;;;5071425;28;19994;-67
2023/04/18 01:48:52;;;;;;;;;;;6.50;99.90;;;;;;5062922;28;20262;-67
2023/04/18 01:51:18;;;;;;;;;;;6.50;99.90;;;;;;5072443;28;19931;-66
2023/04/18 01:53:44;;;;;;;;;;;6.50;99.90;;;;;;5071811;28;19934;-66
2023/04/18 01:56:09;;;;;;;;;;;6.50;99.90;;;;;;5070925;28;20370;-69
2023/04/18 01:58:35;;;;;;;;;;;6.40;99.90;;;;;;5071788;28;19937;-66
2023/04/18 02:01:01;;;;;;;;;;;6.40;99.90;;;;;;5065250;28;20011;-66
2023/04/18 02:03:26;;;;;;;;;;;6.40;99.90;;;;;;5070630;28;20382;-71
2023/04/18 02:05:52;;;;;;;;;;;6.40;99.90;;;;;;5071115;28;20340;-67
2023/04/18 02:08:18;;;;;;;;;;;6.40;99.90;;;;;;5070665;28;19929;-67
2023/04/18 02:10:44;;;;;;;;;;;6.40;99.90;;;;;;5070490;28;20006;-67
2023/04/18 02:13:09;;;;;;;;;;;6.40;99.90;;;;;;5071921;28;20377;-66
2023/04/18 02:15:35;;;;;;;;;;;6.40;99.90;;;;;;5070238;28;20223;-66
2023/04/18 02:18:01;;;;;;;;;;;6.30;99.90;;;;;;5071441;28;19924;-66
2023/04/18 02:20:30;;;;;;;;;;;6.40;99.90;;;;;;5070560;28;20368;-70
2023/04/18 02:22:59;;;;;;;;;;;6.40;99.90;;;;;;5085712;28;19988;-66
2023/04/18 02:25:28;;;;;;;;;;;6.40;99.90;;;;;;5062698;28;20289;-66
2023/04/18 02:27:54;;;;;;;;;;;6.40;99.90;;;;;;5071192;28;19925;-66
2023/04/18 02:30:20;;;;;;;;;;;6.40;99.90;;;;;;5053882;28;19968;-66
2023/04/18 02:32:46;;;;;;;;;;;6.40;99.90;;;;;;5071355;28;20021;-67
2023/04/18 02:35:12;;;;;;;;;;;6.50;99.90;;;;;;5072706;28;19924;-68
2023/04/18 02:37:37;;;;;;;;;;;6.50;99.90;;;;;;5071006;28;19935;-68
2023/04/18 02:40:04;;;;;;;;;;;6.50;99.90;;;;;;5072434;28;19928;-66
2023/04/18 02:42:30;;;;;;;;;;;6.60;99.90;;;;;;5071153;28;19931;-68
2023/04/18 02:44:56;;;;;;;;;;;6.60;99.90;;;;;;5072584;28;19924;-69
2023/04/18 02:47:21;;;;;;;;;;;6.60;99.90;;;;;;5072505;28;20392;-66
2023/04/18 02:49:47;;;;;;;;;;;6.60;99.90;;;;;;5071060;28;19939;-67
2023/04/18 02:52:12;;;;;;;;;;;6.60;99.90;;;;;;5071503;28;19931;-68
2023/04/18 02:54:38;;;;;;;;;;;6.70;99.90;;;;;;5071141;28;19928;-68
2023/04/18 02:57:04;;;;;;;;;;;6.70;99.90;;;;;;5072375;28;19925;-68
2023/04/18 02:59:29;;;;;;;;;;;6.70;99.90;;;;;;5072281;28;19971;-70
2023/04/18 03:01:55;;;;;;;;;;;6.70;99.90;;;;;;5072259;28;19924;-68
2023/04/18 03:04:20;;;;;;;;;;;6.70;99.90;;;;;;5072293;28;19928;-68
2023/04/18 03:06:47;;;;;;;;;;;6.70;99.90;;;;;;5071927;28;20114;-67
2023/04/18 03:09:13;;;;;;;;;;;6.70;99.90;;;;;;5071286;28;20270;-68
2023/04/18 03:11:38;;;;;;;;;;;6.70;99.90;;;;;;5054224;28;19973;-67
2023/04/18 03:14:04;;;;;;;;;;;6.70;99.90;;;;;;5072270;28;20270;-67
2023/04/18 03:16:31;;;;;;;;;;;6.70;99.90;;;;;;5072194;28;19925;-68
2023/04/18 03:18:56;;;;;;;;;;;6.70;99.90;;;;;;5054011;28;20255;-69
2023/04/18 03:21:22;;;;;;;;;;;6.70;99.90;;;;;;5070783;28;19931;-67
2023/04/18 03:23:48;;;;;;;;;;;6.70;99.90;;;;;;5103947;28;19925;-68
2023/04/18 03:26:13;;;;;;;;;;;6.70;99.90;;;;;;5071108;28;19968;-68
2023/04/18 03:28:39;;;;;;;;;;;6.70;99.90;;;;;;5071564;28;20031;-68
2023/04/18 03:31:05;;;;;;;;;;;6.70;99.90;;;;;;5070852;28;19925;-68
2023/04/18 03:33:30;;;;;;;;;;;6.70;99.90;;;;;;5070630;28;20250;-68
2023/04/18 03:35:56;;;;;;;;;;;6.70;99.90;;;;;;5070365;28;19925;-68
2023/04/18 03:38:22;;;;;;;;;;;6.70;99.90;;;;;;5071949;28;20267;-68
2023/04/18 03:40:47;;;;;;;;;;;6.80;99.90;;;;;;5070497;28;20336;-68
2023/04/18 03:43:13;;;;;;;;;;;6.70;99.90;;;;;;5071905;28;19925;-68
2023/04/18 03:45:39;;;;;;;;;;;6.70;99.90;;;;;;5070229;28;19928;-75
2023/04/18 03:48:06;;;;;;;;;;;6.70;99.90;;;;;;5070872;28;19983;-69
2023/04/18 03:50:31;;;;;;;;;;;6.70;99.90;;;;;;5070850;28;19924;-67
2023/04/18 03:52:57;;;;;;;;;;;6.80;99.90;;;;;;5071448;28;19935;-69
2023/04/18 03:55:24;;;;;;;;;;;6.80;99.90;;;;;;5054175;28;20065;-69
2023/04/18 03:57:49;;;;;;;;;;;6.80;99.90;;;;;;5070419;28;20033;-67
2023/04/18 04:00:15;;;;;;;;;;;6.80;99.90;;;;;;5070762;28;20389;-68
2023/04/18 04:02:41;;;;;;;;;;;6.80;99.90;;;;;;5071655;28;19924;-74
2023/04/18 04:05:06;;;;;;;;;;;6.80;99.90;;;;;;5070114;28;20034;-70
2023/04/18 04:07:32;;;;;;;;;;;6.80;99.90;;;;;;5071530;28;19946;-68
2023/04/18 04:09:58;;;;;;;;;;;6.90;99.90;;;;;;5071410;28;19924;-67
2023/04/18 04:12:24;;;;;;;;;;;6.80;99.90;;;;;;5104590;28;20335;-68
2023/04/18 04:14:49;;;;;;;;;;;6.80;99.90;;;;;;5071015;28;19924;-66
2023/04/18 04:17:15;;;;;;;;;;;6.80;99.90;;;;;;5070412;28;19974;-66
2023/04/18 04:19:40;;;;;;;;;;;6.90;99.90;;;;;;5070450;28;19931;-67
2023/04/18 04:22:06;;;;;;;;;;;6.90;99.90;;;;;;5071212;28;19932;-67
2023/04/18 04:24:32;;;;;;;;;;;6.90;99.90;;;;;;5103762;28;19971;-68
2023/04/18 04:26:58;;;;;;;;;;;6.90;99.90;;;;;;5071114;28;19925;-67
2023/04/18 04:29:25;;;;;;;;;;;6.90;99.90;;;;;;5053785;28;19925;-68
2023/04/18 04:31:51;;;;;;;;;;;6.90;99.90;;;;;;5071591;28;19925;-67
2023/04/18 04:34:16;;;;;;;;;;;6.90;99.90;;;;;;5075186;28;19931;-68
2023/04/18 04:36:42;;;;;;;;;;;7.00;99.90;;;;;;5075039;28;19924;-68
2023/04/18 04:39:08;;;;;;;;;;;7.00;99.90;;;;;;5073503;28;19925;-68
2023/04/18 04:41:36;;;;;;;;;;;7.00;99.90;;;;;;5074016;28;19993;-68
2023/04/18 04:44:03;;;;;;;;;;;7.00;99.90;;;;;;5074784;28;19924;-67
2023/04/18 04:46:29;;;;;;;;;;;7.00;99.90;;;;;;5073781;28;19931;-68
2023/04/18 04:48:55;;;;;;;;;;;7.00;99.90;;;;;;5073653;28;19925;-67
2023/04/18 04:51:20;;;;;;;;;;;7.00;99.90;;;;;;5073874;28;19978;-68
2023/04/18 04:53:46;;;;;;;;;;;7.00;99.90;;;;;;5073782;28;19937;-68
2023/04/18 04:56:12;;;;;;;;;;;7.10;99.90;;;;;;5074693;28;20262;-69
2023/04/18 04:58:37;;;;;;;;;;;7.00;99.90;;;;;;5074695;28;20011;-68
2023/04/18 05:01:06;;;;;;;;;;;7.10;99.90;;;;;;5073463;28;20025;-69
2023/04/18 05:03:32;;;;;;;;;;;7.10;99.90;;;;;;5073484;28;20023;-68
2023/04/18 05:05:58;;;;;;;;;;;7.10;99.90;;;;;;5074046;28;20011;-68
2023/04/18 05:08:23;;;;;;;;;;;7.10;99.90;;;;;;5074744;28;19930;-67
2023/04/18 05:10:49;;;;;;;;;;;7.10;99.90;;;;;;5074415;28;20015;-74
2023/04/18 05:13:15;;;;;;;;;;;7.10;99.90;;;;;;5073484;28;19971;-68
2023/04/18 05:15:41;;;;;;;;;;;7.10;99.90;;;;;;5074341;28;19983;-67
2023/04/18 05:18:07;;;;;;;;;;;7.10;99.90;;;;;;5073964;28;19936;-68
2023/04/18 05:20:33;;;;;;;;;;;7.10;99.90;;;;;;5072864;28;20052;-68
2023/04/18 05:22:58;;;;;;;;;;;7.20;99.90;;;;;;5072528;28;19924;-67
2023/04/18 05:25:24;;;;;;;;;;;7.30;99.90;;;;;;5074174;28;19924;-68
2023/04/18 05:27:50;;;;;;;;;;;7.30;99.90;;;;;;5073122;28;19928;-67
2023/04/18 05:30:16;;;;;;;;;;;7.30;99.90;;;;;;5072649;28;19931;-66
2023/04/18 05:32:42;;;;;;;;;;;7.30;99.90;;;;;;5072832;28;19925;-66
2023/04/18 05:35:08;;;;;;;;;;;7.40;99.90;;;;;;5073772;28;19932;-68
2023/04/18 05:37:33;;;;;;;;;;;7.40;99.90;;;;;;5073140;28;19924;-70
2023/04/18 05:39:59;;;;;;;;;;;7.40;99.90;;;;;;5072638;28;20282;-67
2023/04/18 05:42:25;;;;;;;;;;;7.50;99.90;;;;;;5073891;28;19924;-66
2023/04/18 05:44:50;;;;;;;;;;;7.50;99.90;;;;;;5072702;28;19931;-66
2023/04/18 05:47:16;;;;;;;;;;;7.60;99.90;;;;;;5073358;28;19924;-67
2023/04/18 05:49:42;;;;;;;;;;;7.60;99.90;;;;;;5072797;28;20381;-67
2023/04/18 05:52:07;;;;;;;;;;;7.60;99.90;;;;;;5072334;28;20081;-66
2023/04/18 05:54:33;;;;;;;;;;;7.60;99.90;;;;;;5073827;28;19924;-66
2023/04/18 05:56:59;;;;;;;;;;;7.70;99.90;;;;;;5071840;28;19925;-67
2023/04/18 05:59:25;;;;;;;;;;;8.00;99.90;;;;;;5073531;28;19925;-65
2023/04/18 06:01:51;;;;;;;;;;;8.40;99.90;;;;;;5072655;28;19978;-67
2023/04/18 06:04:17;;;;;;;;;;;9.10;99.90;;;;;;5072052;28;19936;-67
2023/04/18 06:06:43;;;;;;;;;;;10.00;99.90;;;;;;5073449;28;19932;-67
2023/04/18 06:09:08;;;;;;;;;;;10.80;99.90;;;;;;5105532;28;19924;-67
2023/04/18 06:11:34;;;;;;;;;;;11.00;99.90;;;;;;5072138;28;20015;-67
2023/04/18 06:14:00;;;;;;;;;;;11.20;99.90;;;;;;5072112;28;19924;-67
2023/04/18 06:16:26;;;;;;;;;;;11.60;99.90;;;;;;5072192;28;19925;-67
2023/04/18 06:18:51;;;;;;;;;;;11.40;99.90;;;;;;5072402;28;19932;-68
2023/04/18 06:21:17;;;;;;;;;;;11.00;99.90;;;;;;5071747;28;20370;-67
2023/04/18 06:23:42;;;;;;;;;;;10.80;99.90;;;;;;5054812;28;20213;-67
2023/04/18 06:26:08;;;;;;;;;;;10.50;99.90;;;;;;5071616;28;20382;-67
2023/04/18 06:28:34;;;;;;;;;;;10.90;99.90;;;;;;5071872;28;19925;-67
2023/04/18 06:31:00;;;;;;;;;;;11.50;99.90;;;;;;5055139;28;19924;-69
2023/04/18 06:33:25;;;;;;;;;;;12.10;99.90;;;;;;5071654;28;19920;-67
2023/04/18 06:35:51;;;;;;;;;;;12.50;99.90;;;;;;5071951;28;19928;-66
2023/04/18 06:38:17;;;;;;;;;;;12.90;99.90;;;;;;5072697;28;20377;-67
2023/04/18 06:40:42;;;;;;;;;;;12.90;99.90;;;;;;5071604;28;19932;-66
2023/04/18 06:43:08;;;;;;;;;;;13.10;99.90;;;;;;5071517;28;19924;-68
2023/04/18 06:45:34;;;;;;;;;;;13.40;99.90;;;;;;5054910;28;19924;-67
2023/04/18 06:48:01;;;;;;;;;;;13.50;99.90;;;;;;5071323;28;19931;-65
2023/04/18 06:50:27;;;;;;;;;;;13.80;99.90;;;;;;5072651;28;19924;-66
2023/04/18 06:52:53;;;;;;;;;;;14.10;99.90;;;;;;5071491;28;19939;-66
2023/04/18 06:55:18;;;;;;;;;;;14.10;99.90;;;;;;5072000;28;19931;-67
2023/04/18 06:57:44;;;;;;;;;;;14.20;99.90;;;;;;5072566;28;19920;-67
2023/04/18 07:00:10;;;;;;;;;;;14.10;99.90;;;;;;5054842;28;19936;-71
2023/04/18 07:02:36;;;;;;;;;;;14.10;99.90;;;;;;5054854;28;19925;-65
2023/04/18 07:05:02;;;;;;;;;;;14.00;99.90;;;;;;5071307;28;20027;-65
2023/04/18 07:07:27;;;;;;;;;;;14.30;99.90;;;;;;5072133;28;19975;-64
2023/04/18 07:09:53;;;;;;;;;;;14.70;99.90;;;;;;5072268;28;19924;-64
2023/04/18 07:12:19;;;;;;;;;;;14.90;99.90;;;;;;5054240;28;20355;-64
2023/04/18 07:14:45;;;;;;;;;;;14.80;99.90;;;;;;5071035;28;19924;-64
2023/04/18 07:17:10;;;;;;;;;;;14.80;99.90;;;;;;5071111;28;19970;-65
2023/04/18 07:19:36;;;;;;;;;;;15.00;99.70;;;;;;5072244;28;19947;-64
2023/04/18 07:22:01;;;;;;;;;;;15.20;99.90;;;;;;5071080;28;19924;-65
2023/04/18 07:24:27;;;;;;;;;;;15.40;99.50;;;;;;5071811;28;19932;-67
2023/04/18 07:26:53;;;;;;;;;;;15.50;99.40;;;;;;5072501;28;19932;-67
2023/04/18 07:29:18;;;;;;;;;;;15.40;98.40;;;;;;5070320;28;19924;-68
2023/04/18 07:31:44;;;;;;;;;;;15.00;98.70;;;;;;5070980;28;19928;-66
2023/04/18 07:34:10;;;;;;;;;;;15.00;98.70;;;;;;5087674;28;19920;-65
2023/04/18 07:36:36;;;;;;;;;;;15.20;98.20;;;;;;5071106;28;19933;-67
2023/04/18 07:39:02;;;;;;;;;;;15.50;97.90;;;;;;5103941;28;20011;-66
2023/04/18 07:41:27;;;;;;;;;;;15.90;98.30;;;;;;5071546;28;20011;-65
2023/04/18 07:43:53;;;;;;;;;;;16.40;98.70;;;;;;5070573;28;20397;-67
2023/04/18 07:46:19;;;;;;;;;;;16.70;97.90;;;;;;5071691;28;19931;-67
2023/04/18 07:48:45;;;;;;;;;;;17.00;96.80;;;;;;5054448;28;19931;-68
2023/04/18 07:51:11;;;;;;;;;;;17.10;97.30;;;;;;5070535;28;19931;-68
2023/04/18 07:53:36;;;;;;;;;;;17.30;96.90;;;;;;5072192;28;19970;-67
2023/04/18 07:56:02;;;;;;;;;;;17.80;97.10;;;;;;5070299;28;19924;-68
2023/04/18 07:58:28;;;;;;;;;;;18.10;96.80;;;;;;5070691;28;20015;-67
2023/04/18 08:00:53;;;;;;;;;;;18.30;96.30;;;;;;5070718;28;19931;-69
2023/04/18 08:03:19;;;;;;;;;;;18.10;95.70;;;;;;5054110;28;19931;-67
2023/04/18 08:05:45;;;;;;;;;;;18.40;95.50;;;;;;5054163;28;19928;-68
2023/04/18 08:08:11;;;;;;;;;;;18.70;95.50;;;;;;5074922;28;19972;-66
2023/04/18 08:10:36;;;;;;;;;;;18.50;92.40;;;;;;5073987;28;20007;-68
2023/04/18 08:13:02;;;;;;;;;;;18.50;93.90;;;;;;5075754;28;19924;-67
2023/04/18 08:15:31;;;;;;;;;;;18.40;92.30;;;;;;5074095;28;19974;-67
2023/04/18 08:17:57;;;;;;;;;;;18.50;93.10;;;;;;5074175;28;19932;-67
2023/04/18 08:20:22;;;;;;;;;;;18.50;92.30;;;;;;5073880;28;19949;-67
2023/04/18 08:22:48;;;;;;;;;;;18.40;92.00;;;;;;5074498;28;19928;-66
2023/04/18 08:25:13;;;;;;;;;;;18.40;93.30;;;;;;5073714;28;19925;-68
2023/04/18 08:27:39;;;;;;;;;;;18.70;92.40;;;;;;5075529;28;20038;-66
2023/04/18 08:30:05;;;;;;;;;;;18.90;92.10;;;;;;5057733;28;19946;-67
2023/04/18 08:32:31;;;;;;;;;;;18.80;92.30;;;;;;5075185;28;20014;-66
2023/04/18 08:34:57;;;;;;;;;;;18.90;92.30;;;;;;5074066;28;20025;-66
2023/04/18 08:37:22;;;;;;;;;;;19.00;91.90;;;;;;5074852;28;19936;-66
2023/04/18 08:39:48;;;;;;;;;;;18.80;91.40;;;;;;5075426;28;19921;-66
2023/04/18 08:42:18;;;;;;;;;;;19.00;90.70;;;;;;5074204;28;19925;-67
2023/04/18 08:44:44;;;;;;;;;;;19.00;90.30;;;;;;5073992;28;19927;-66
2023/04/18 08:47:11;;;;;;;;;;;18.90;90.40;;;;;;5057216;28;19924;-66
2023/04/18 08:49:37;;;;;;;;;;;18.80;90.80;;;;;;5073810;28;20206;-66
2023/04/18 08:52:07;;;;;;;;;;;18.90;90.70;;;;;;5073770;28;20019;-66
2023/04/18 08:54:37;;;;;;;;;;;18.70;90.50;;;;;;5074703;28;19925;-65
2023/04/18 08:57:06;;;;;;;;;;;18.50;88.60;;;;;;5073437;28;19928;-67
2023/04/18 08:59:34;;;;;;;;;;;18.30;89.80;;;;;;5074488;28;19924;-65
2023/04/18 09:02:00;;;;;;;;;;;18.30;88.90;;;;;;5073650;28;19924;-65
2023/04/18 09:04:35;;;;;;;;;;;18.20;89.40;;;;;;5073228;28;19931;-66
2023/04/18 09:07:08;;;;;;;;;;;18.40;88.60;;;;;;5073720;28;19924;-67
2023/04/18 09:09:42;;;;;;;;;;;18.50;88.40;;;;;;5072979;28;20347;-68
2023/04/18 09:12:10;;;;;;;;;;;18.50;88.20;;;;;;5074487;28;19925;-65
2023/04/18 09:14:36;;;;;;;;;;;18.60;88.50;;;;;;5073011;28;19928;-66
2023/04/18 09:17:02;;;;;;;;;;;18.60;89.20;;;;;;5074187;28;19924;-67
2023/04/18 09:19:29;;;;;;;;;;;18.50;89.60;;;;;;5074074;28;19924;-66
2023/04/18 09:21:57;;;;;;;;;;;18.60;90.00;;;;;;5074434;28;20035;-65
2023/04/18 09:24:25;;;;;;;;;;;18.70;88.20;;;;;;5073608;28;20011;-66
2023/04/18 09:26:52;;;;;;;;;;;18.80;88.50;;;;;;5074316;28;19924;-65
2023/04/18 09:29:21;;;;;;;;;;;18.90;89.80;;;;;;5074202;28;19925;-65
2023/04/18 09:32:00;;;;;;;;;;;18.90;89.00;;;;;;5073163;28;19951;-64
2023/04/18 09:34:26;;;;;;;;;;;18.30;88.80;;;;;;5072770;28;19975;-65
2023/04/18 09:37:12;;;;;;;;;;;17.30;88.90;;;;;;5074093;28;19932;-65
2023/04/18 09:39:41;;;;;;;;;;;16.60;90.10;;;;;;5073088;28;19969;-67
2023/04/18 09:42:09;;;;;;;;;;;16.20;90.30;;;;;;5072582;28;19937;-66
2023/04/18 09:44:35;;;;;;;;;;;15.90;91.10;;;;;;5072538;28;19931;-67
2023/04/18 09:47:00;;;;;;;;;;;15.70;91.30;;;;;;5073987;28;19925;-65
2023/04/18 09:49:26;;;;;;;;;;;15.50;91.30;;;;;;5073475;28;19932;-66
2023/04/18 09:51:54;;;;;;;;;;;15.30;91.70;;;;;;5072846;28;19971;-66
2023/04/18 09:54:24;;;;;;;;;;;15.10;92.00;;;;;;5073774;28;19969;-66
2023/04/18 09:56:52;;;;;;;;;;;14.90;92.30;;;;;;5073389;28;19924;-65
2023/04/18 09:59:40;;;;;;;;;;;14.80;92.80;;;;;;5072118;28;20381;-68
2023/04/18 10:02:13;;;;;;;;;;;14.80;93.00;;;;;;5073506;28;19924;-65
2023/04/18 10:04:39;;;;;;;;;;;14.60;93.20;;;;;;5073213;28;20062;-66
2023/04/18 10:07:05;;;;;;;;;;;14.40;93.20;;;;;;5055849;28;20019;-65
2023/04/18 10:09:32;;;;;;;;;;;14.40;93.70;;;;;;5073249;28;19930;-65
2023/04/18 10:11:58;;;;;;;;;;;14.30;93.80;;;;;;5055513;28;19929;-66
2023/04/18 10:14:24;;;;;;;;;;;14.20;94.10;;;;;;5105941;28;19924;-66
2023/04/18 10:16:50;;;;;;;;;;;14.30;94.10;;;;;;5071998;28;19931;-66
2023/04/18 10:19:19;;;;;;;;;;;14.30;94.60;;;;;;5073249;28;19924;-67
2023/04/18 10:21:51;;;;;;;;;;;14.30;94.60;;;;;;5072939;28;19928;-67
2023/04/18 10:24:35;;;;;;;;;;;14.30;94.90;;;;;;5072866;28;19936;-66
2023/04/18 10:27:01;;;;;;;;;;;14.30;94.70;;;;;;5071620;28;19924;-66
2023/04/18 10:29:45;;;;;;;;;;;14.30;94.90;;;;;;5071170;28;20385;-66
2023/04/18 10:32:11;;;;;;;;;;;14.40;94.80;;;;;;5073071;28;19928;-67
2023/04/18 10:34:37;;;;;;;;;;;14.30;94.80;;;;;;5072768;28;19928;-65
2023/04/18 10:37:03;;;;;;;;;;;14.30;95.00;;;;;;5072050;28;20384;-66
2023/04/18 10:39:28;;;;;;;;;;;14.30;94.80;;;;;;5072939;28;19925;-65
2023/04/18 10:41:54;;;;;;;;;;;14.30;95.10;;;;;;5071433;28;19924;-65
2023/04/18 10:44:21;;;;;;;;;;;14.30;95.10;;;;;;5071743;28;19920;-65
2023/04/18 10:46:47;;;;;;;;;;;14.20;95.20;;;;;;5072293;28;19928;-66
2023/04/18 10:49:16;;;;;;;;;;;14.30;95.40;;;;;;5072707;28;19924;-65
2023/04/18 10:51:49;;;;;;;;;;;14.30;95.40;;;;;;5054923;28;20402;-66
2023/04/18 10:54:20;;;;;;;;;;;14.20;95.50;;;;;;5072690;28;19929;-67
2023/04/18 10:57:00;;;;;;;;;;;14.20;95.50;;;;;;5072330;28;19924;-65
2023/04/18 10:59:27;;;;;;;;;;;14.20;95.70;;;;;;5072665;28;19932;-65
2023/04/18 11:01:54;;;;;;;;;;;14.20;95.80;;;;;;5071505;28;20115;-64
2023/04/18 11:04:20;;;;;;;;;;;14.30;95.80;;;;;;5071357;28;19932;-66
2023/04/18 11:06:49;;;;;;;;;;;14.20;95.70;;;;;;5054415;28;20348;-65
2023/04/18 11:09:15;;;;;;;;;;;14.20;95.90;;;;;;5071577;28;19925;-64
2023/04/18 11:11:41;;;;;;;;;;;14.20;96.40;;;;;;5054543;28;19940;-65
2023/04/18 11:14:06;;;;;;;;;;;14.20;96.00;;;;;;5071230;28;19935;-65
2023/04/18 11:16:32;;;;;;;;;;;14.20;96.00;;;;;;5071363;28;19965;-65
2023/04/18 11:18:58;;;;;;;;;;;14.10;96.30;;;;;;5070768;28;19933;-64
2023/04/18 11:21:26;;;;;;;;;;;14.00;96.30;;;;;;5072366;28;19960;-64
2023/04/18 11:23:55;;;;;;;;;;;13.90;96.60;;;;;;5071490;28;19935;-66
2023/04/18 11:26:27;;;;;;;;;;;13.90;96.50;;;;;;5072238;28;20024;-64
2023/04/18 11:28:56;;;;;;;;;;;13.90;96.60;;;;;;5070933;28;19987;-66
2023/04/18 11:31:23;;;;;;;;;;;13.90;96.60;;;;;;5071032;28;20344;-64
2023/04/18 11:33:54;;;;;;;;;;;14.00;96.40;;;;;;5071919;28;19950;-64
2023/04/18 11:36:20;;;;;;;;;;;14.10;96.80;;;;;;5072093;28;19925;-64
2023/04/18 11:38:46;;;;;;;;;;;14.10;96.80;;;;;;5068988;28;19928;-66
2023/04/18 11:41:14;;;;;;;;;;;14.30;96.90;;;;;;5071064;28;19931;-65
2023/04/18 11:43:44;;;;;;;;;;;14.30;96.90;;;;;;5074599;28;20447;-64
2023/04/18 11:46:10;;;;;;;;;;;14.40;96.80;;;;;;5074862;28;20429;-65
2023/04/18 11:48:40;;;;;;;;;;;14.30;96.30;;;;;;5075700;28;19924;-65
2023/04/18 11:51:06;;;;;;;;;;;14.30;96.60;;;;;;5075086;28;20289;-65
2023/04/18 11:53:36;;;;;;;;;;;14.20;96.70;;;;;;5074538;28;20250;-65
2023/04/18 11:56:02;;;;;;;;;;;14.20;96.80;;;;;;5073383;28;19932;-65
2023/04/18 11:58:32;;;;;;;;;;;14.10;96.60;;;;;;5073297;28;20015;-69
2023/04/18 12:00:58;;;;;;;;;;;14.00;96.80;;;;;;5074182;28;19928;-65
2023/04/18 12:03:23;;;;;;;;;;;14.00;96.60;;;;;;5057582;28;20376;-66
2023/04/18 12:05:57;;;;;;;;;;;13.90;96.60;;;;;;5073041;28;20015;-66
2023/04/18 12:08:23;;;;;;;;;;;13.90;96.70;;;;;;5075120;28;19924;-64
2023/04/18 12:10:50;;;;;;;;;;;13.80;96.70;;;;;;5073156;28;19932;-66
2023/04/18 12:13:16;;;;;;;;;;;13.90;96.80;;;;;;5075042;28;20057;-67
2023/04/18 12:15:43;;;;;;;;;;;13.90;97.00;;;;;;5075481;28;19974;-69
2023/04/18 12:18:10;;;;;;;;;;;14.10;97.00;;;;;;5073929;28;19929;-67
2023/04/18 12:20:44;;;;;;;;;;;14.10;96.90;;;;;;5073716;28;20016;-66
2023/04/18 12:23:29;;;;;;;;;;;14.20;97.10;;;;;;5074334;28;19924;-66
2023/04/18 12:26:02;;;;;;;;;;;14.20;96.90;;;;;;5055585;28;19928;-67
2023/04/18 12:28:28;;;;;;;;;;;14.10;97.10;;;;;;5075109;28;19925;-68
2023/04/18 12:30:54;;;;;;;;;;;14.10;97.00;;;;;;5056499;28;19924;-67
2023/04/18 12:33:20;;;;;;;;;;;14.10;97.10;;;;;;5073566;28;20255;-66
2023/04/18 12:35:45;;;;;;;;;;;14.20;97.60;;;;;;5071904;28;19925;-69
2023/04/18 12:38:11;;;;;;;;;;;14.30;96.90;;;;;;5073318;28;20023;-66
2023/04/18 12:40:40;;;;;;;;;;;14.30;96.80;;;;;;5073598;28;20328;-68
2023/04/18 12:43:05;;;;;;;;;;;14.20;96.80;;;;;;5056660;28;19921;-65
2023/04/18 12:45:31;;;;;;;;;;;14.20;96.80;;;;;;5073302;28;20042;-66
2023/04/18 12:47:57;;;;;;;;;;;14.20;96.40;;;;;;5056871;28;19928;-67
2023/04/18 12:50:24;;;;;;;;;;;14.10;96.60;;;;;;5074826;28;19970;-65
2023/04/18 12:52:53;;;;;;;;;;;14.10;97.00;;;;;;5072717;28;20019;-67
2023/04/18 12:55:20;;;;;;;;;;;14.10;96.90;;;;;;5074860;28;19924;-67
2023/04/18 12:57:45;;;;;;;;;;;14.10;97.10;;;;;;5073663;28;19925;-67
2023/04/18 13:00:12;;;;;;;;;;;14.20;96.90;;;;;;5073100;28;19969;-66
2023/04/18 13:02:41;;;;;;;;;;;14.20;96.70;;;;;;5057033;28;19925;-66
2023/04/18 13:05:08;;;;;;;;;;;14.30;96.90;;;;;;5073116;28;19924;-66
2023/04/18 13:07:36;;;;;;;;;;;14.30;96.80;;;;;;5056730;28;19924;-66
2023/04/18 13:10:01;;;;;;;;;;;14.30;96.80;;;;;;5074265;28;19931;-67
2023/04/18 13:12:29;;;;;;;;;;;14.30;97.30;;;;;;5074416;28;19925;-66
2023/04/18 13:14:55;;;;;;;;;;;14.40;96.60;;;;;;5073195;28;20019;-67
2023/04/18 13:17:21;;;;;;;;;;;14.50;96.70;;;;;;5074673;28;19924;-67
2023/04/18 13:19:46;;;;;;;;;;;14.40;96.40;;;;;;5074447;28;19929;-68
2023/04/18 13:22:12;;;;;;;;;;;14.40;96.80;;;;;;5072911;28;19932;-66
2023/04/18 13:24:37;;;;;;;;;;;14.40;96.80;;;;;;5056143;28;19933;-66
2023/04/18 13:27:09;;;;;;;;;;;14.50;96.80;;;;;;5073898;28;19931;-66
2023/04/18 13:29:35;;;;;;;;;;;14.50;96.90;;;;;;5073347;28;19924;-66
2023/04/18 13:32:01;;;;;;;;;;;14.50;96.70;;;;;;5056083;28;19924;-68
2023/04/18 13:34:26;;;;;;;;;;;14.40;97.00;;;;;;5107054;28;19928;-66
2023/04/18 13:36:52;;;;;;;;;;;14.40;96.90;;;;;;5072669;28;19977;-69
2023/04/18 13:39:18;;;;;;;;;;;14.30;96.70;;;;;;5055891;28;19926;-66
2023/04/18 13:41:43;;;;;;;;;;;14.20;96.90;;;;;;5106497;28;19931;-66
2023/04/18 13:44:09;;;;;;;;;;;14.20;97.40;;;;;;5073358;28;19932;-66
2023/04/18 13:46:35;;;;;;;;;;;14.30;97.50;;;;;;5073970;28;19932;-66
2023/04/18 13:49:00;;;;;;;;;;;14.30;97.70;;;;;;5072286;28;19924;-67
2023/04/18 13:51:27;;;;;;;;;;;14.30;97.20;;;;;;5072071;28;19928;-67
2023/04/18 13:53:52;;;;;;;;;;;14.20;97.50;;;;;;5106406;28;19931;-68
2023/04/18 13:56:18;;;;;;;;;;;14.20;97.70;;;;;;5072389;28;20015;-67
2023/04/18 13:58:44;;;;;;;;;;;14.10;97.70;;;;;;5072496;28;19924;-66
2023/04/18 14:01:09;;;;;;;;;;;14.10;97.70;;;;;;5071941;28;19932;-67
2023/04/18 14:03:35;;;;;;;;;;;14.00;97.80;;;;;;5071430;28;20007;-66
2023/04/18 14:06:00;;;;;;;;;;;13.90;98.00;;;;;;5072660;28;19968;-66
2023/04/18 14:08:26;;;;;;;;;;;13.90;98.00;;;;;;5073619;28;19971;-66
2023/04/18 14:10:51;;;;;;;;;;;13.90;98.10;;;;;;5072170;28;19928;-67
2023/04/18 14:13:17;;;;;;;;;;;13.80;98.10;;;;;;5071875;28;19924;-66
2023/04/18 14:15:43;;;;;;;;;;;13.80;98.20;;;;;;5055361;28;19925;-69
2023/04/18 14:18:08;;;;;;;;;;;13.80;98.20;;;;;;5072908;28;19924;-66
2023/04/18 14:20:35;;;;;;;;;;;13.70;98.30;;;;;;5071914;28;19930;-67